createdAt,value
2023-05-22T00:08:29.447Z,17.6
2023-05-22T00:38:46.997Z,17.25
2023-05-22T01:09:05.068Z,16.9
2023-05-22T01:39:22.568Z,16.6
2023-05-22T02:09:40.246Z,16.4
2023-05-22T02:39:57.976Z,16.25
2023-05-22T03:10:16.131Z,16
2023-05-22T03:40:34.436Z,15.7
2023-05-22T04:10:51.912Z,15.6
2023-05-22T04:41:10.364Z,15.9
2023-05-22T05:11:30.631Z,17.1
2023-05-22T05:41:52.896Z,18.9
2023-05-22T06:12:14.389Z,20.65
2023-05-22T06:42:42.379Z,23.2
2023-05-22T07:13:04.827Z,24.25
2023-05-22T07:43:25.737Z,25.75
2023-05-22T08:13:46.740Z,26.5
2023-05-22T08:44:05.314Z,26.65
2023-05-22T09:14:26.467Z,28.2
2023-05-22T09:44:52.123Z,29.45
2023-05-22T10:15:14.041Z,30.45
2023-05-22T10:45:23.871Z,29.3
2023-05-22T11:15:38.343Z,30.4
2023-05-22T11:46:14.956Z,32.45
2023-05-22T12:16:20.921Z,31
2023-05-22T12:46:38.768Z,31.75
2023-05-22T13:17:07.737Z,33.05
2023-05-22T13:47:19.911Z,30.6
2023-05-22T14:17:25.295Z,30.45
2023-05-22T14:47:43.608Z,28.75
2023-05-22T15:17:57.329Z,27.6
2023-05-22T15:48:10.723Z,26.25
2023-05-22T16:18:26.414Z,23
2023-05-22T16:48:38.613Z,22.1
2023-05-22T17:18:58.703Z,22.35
2023-05-22T17:49:17.134Z,22.2
2023-05-22T18:19:34.346Z,22.1
2023-05-22T18:49:51.847Z,21.4
2023-05-22T19:20:08.353Z,20.7
2023-05-22T19:50:26.231Z,20.35
2023-05-22T20:20:44.584Z,20.1
2023-05-22T20:51:00.382Z,19.9
2023-05-22T21:21:18.875Z,19.75
2023-05-22T21:51:36.670Z,19.5
2023-05-22T22:21:56.708Z,19.45
2023-05-22T22:52:12.915Z,19.05
2023-05-22T23:22:33.807Z,18.95
2023-05-22T23:52:52.683Z,18.95
